This is the latest recevied weather packets stored in our database for station/object DO7VLR-5. If no packets are shown the sender has not sent any weather packets the latest 10 day(s).
| Time | Temp. | Humidity | Pressure | Rain* | Wind** | Luminosity | Snow |
|---|---|---|---|---|---|---|---|
| 1788139817 | 63° F | 94% | 761 mmHg | 0 in | - | - | - |
| 1788138016 | 63° F | 95% | 760.9 mmHg | 0.02 in | - | - | - |
| 1788136216 | 63° F | 95% | 760.9 mmHg | 0.19 in | - | - | - |
| 1788134415 | 63° F | 95% | 760.7 mmHg | 0.24 in | - | - | - |
| 1788132615 | 62° F | 94% | 760.8 mmHg | 0.17 in | - | - | - |
| 1788130817 | 62° F | 94% | 761 mmHg | 0.12 in | - | - | - |
| 1788129017 | 61° F | 93% | 760.6 mmHg | 0.07 in | - | - | - |
| 1788127217 | 62° F | 91% | 760.6 mmHg | 0.04 in | - | - | - |
| 1788125416 | 63° F | 83% | 760.5 mmHg | 0 in | - | - | - |
| 1788123616 | 64° F | 80% | 760.4 mmHg | 0 in | - | - | - |
| 1788121816 | 64° F | 78% | 760.3 mmHg | 0 in | - | - | - |
| 1788120016 | 64° F | 77% | 760.3 mmHg | 0 in | - | - | - |
| 1788118216 | 64° F | 77% | 760.4 mmHg | 0 in | - | - | - |
| 1788116415 | 65° F | 76% | 760.3 mmHg | 0 in | - | - | - |
| 1788114616 | 67° F | 73% | 760.3 mmHg | 0 in | - | - | - |
| 1788112815 | 69° F | 69% | 760.4 mmHg | 0 in | - | - | - |
| 1788111015 | 72° F | 59% | 760.6 mmHg | 0 in | - | - | - |
| 1788109216 | 76° F | 53% | 760.7 mmHg | 0 in | - | - | - |
| 1788107416 | 76° F | 51% | 760.8 mmHg | 0 in | - | - | - |
| 1788105615 | 76° F | 51% | 760.9 mmHg | 0 in | - | - | - |
| 1788103818 | 77° F | 50% | 760.9 mmHg | 0 in | - | - | - |
| 1788102017 | 77° F | 49% | 761 mmHg | 0 in | - | - | - |
| 1788100217 | 76° F | 50% | 761.2 mmHg | 0 in | - | - | - |
| 1788098417 | 77° F | 50% | 761.2 mmHg | 0 in | - | - | - |
| 1788096617 | 77° F | 50% | 761.2 mmHg | 0 in | - | - | - |
* Rain latest hour (hover to see other rain measurements)
** Current wind speed in m/s (hover to see current wind gust speed)